Time;durP1;ratioP1;P1;durP2;ratioP2;P2;SDS_P1;SDS_P2;PMS_P1;PMS_P2;Temp;Humidity;BMP_temperature;BMP_pressure;BME280_temperature;BME280_humidity;BME280_pressure;Samples;Min_cycle;Max_cycle;Signal;HPM_P1;HPM_P2
2022/07/04 00:00:53;;;;;;;2.03;1.45;;;;;;;22.17;nan;96454.13;4996282;28;20210;-72
2022/07/04 00:03:20;;;;;;;2.65;1.45;;;;;;;22.16;nan;96455.19;4996008;28;20424;-72
2022/07/04 00:05:48;;;;;;;5.43;1.48;;;;;;;22.24;nan;96452.09;4996693;28;20207;-72
2022/07/04 00:08:14;;;;;;;3.30;1.75;;;;;;;22.12;nan;96447.84;4996723;28;20218;-72
2022/07/04 00:10:41;;;;;;;4.35;1.60;;;;;;;22.07;nan;96437.84;4995745;28;20203;-72
2022/07/04 00:13:07;;;;;;;3.17;1.80;;;;;;;22.11;nan;96430.94;4996270;28;20211;-72
2022/07/04 00:15:34;;;;;;;1.85;1.60;;;;;;;22.13;nan;96428.84;4995799;28;20958;-72
2022/07/04 00:18:00;;;;;;;1.70;1.50;;;;;;;22.11;nan;96424.78;4998822;28;20226;-72
2022/07/04 00:20:27;;;;;;;4.00;1.60;;;;;;;22.02;nan;96426.22;5000450;28;20663;-72
2022/07/04 00:22:55;;;;;;;3.75;2.00;;;;;;;22.04;nan;96434.03;5000374;28;20199;-72
2022/07/04 00:25:22;;;;;;;5.70;1.58;;;;;;;22.05;nan;96434.59;4999507;28;20213;-72
2022/07/04 00:27:48;;;;;;;2.35;1.60;;;;;;;22.20;nan;96426.78;4999233;28;20210;-72
2022/07/04 00:30:15;;;;;;;4.10;1.60;;;;;;;22.27;nan;96429.34;5000811;28;20228;-72
2022/07/04 00:32:41;;;;;;;2.45;1.70;;;;;;;22.10;nan;96429.31;4998931;28;20207;-72
2022/07/04 00:35:09;;;;;;;3.85;1.60;;;;;;;22.29;nan;96427.25;4999925;28;20210;-72
2022/07/04 00:37:35;;;;;;;1.60;1.42;;;;;;;22.03;nan;96411.72;5000272;28;20226;-72
2022/07/04 00:40:04;;;;;;;4.45;1.88;;;;;;;22.15;nan;96404.44;4999167;28;20233;-72
2022/07/04 00:42:30;;;;;;;3.63;1.90;;;;;;;22.01;nan;96399.59;4998373;28;20213;-72
2022/07/04 00:44:57;;;;;;;1.70;1.60;;;;;;;22.01;nan;96391.56;4999800;28;20750;-72
2022/07/04 00:47:23;;;;;;;3.42;1.70;;;;;;;22.13;nan;96385.06;4999440;28;20194;-72
2022/07/04 00:49:50;;;;;;;1.88;1.67;;;;;;;22.03;nan;96384.09;4996334;28;20223;-72
2022/07/04 00:52:18;;;;;;;1.90;1.60;;;;;;;21.89;nan;96382.78;4998907;28;20194;-72
2022/07/04 00:54:46;;;;;;;2.90;1.90;;;;;;;21.93;nan;96381.22;4999549;28;20721;-72
2022/07/04 00:57:14;;;;;;;3.85;1.80;;;;;;;21.81;nan;96380.50;4999015;28;20926;-72
2022/07/04 00:59:40;;;;;;;3.53;1.67;;;;;;;21.80;nan;96378.88;4999111;28;20230;-72
2022/07/04 01:02:07;;;;;;;2.22;1.60;;;;;;;21.79;nan;96385.28;4999106;28;20233;-72
2022/07/04 01:04:34;;;;;;;2.38;1.80;;;;;;;21.35;nan;96380.72;4998765;28;20199;-72
2022/07/04 01:07:01;;;;;;;7.38;1.73;;;;;;;21.32;nan;96380.38;4999004;28;20199;-72
2022/07/04 01:09:28;;;;;;;3.85;1.58;;;;;;;21.36;nan;96376.97;4999180;28;20718;-72
2022/07/04 01:11:54;;;;;;;3.47;1.88;;;;;;;21.57;nan;96373.63;4999173;28;20199;-72
2022/07/04 01:14:22;;;;;;;3.40;1.90;;;;;;;21.62;nan;96373.72;4998618;28;20206;-72
2022/07/04 01:16:49;;;;;;;2.65;1.73;;;;;;;21.57;nan;96384.38;4999065;28;20671;-72
2022/07/04 01:19:15;;;;;;;2.83;1.67;;;;;;;21.23;nan;96388.00;4999015;28;20222;-72
2022/07/04 01:21:43;;;;;;;1.60;1.50;;;;;;;21.36;nan;96387.72;4998654;28;20693;-72
2022/07/04 01:24:12;;;;;;;3.55;1.67;;;;;;;21.04;nan;96378.50;4998683;28;20203;-72
2022/07/04 01:26:38;;;;;;;2.67;1.70;;;;;;;20.99;nan;96375.72;4999242;28;20670;-72
2022/07/04 01:29:05;;;;;;;2.03;1.50;;;;;;;20.95;nan;96373.75;4997572;28;20222;-72
2022/07/04 01:31:31;;;;;;;3.75;2.00;;;;;;;20.72;nan;96379.16;4998285;28;20994;-72
2022/07/04 01:33:58;;;;;;;4.78;1.63;;;;;;;20.70;nan;96380.44;4998705;28;20215;-72
2022/07/04 01:36:24;;;;;;;4.03;2.08;;;;;;;20.93;nan;96370.50;4999013;28;20206;-72
2022/07/04 01:38:54;;;;;;;2.50;1.90;;;;;;;20.89;nan;96372.03;4999329;28;20223;-72
2022/07/04 01:41:20;;;;;;;2.35;1.90;;;;;;;20.87;nan;96369.59;4998857;28;20210;-72
2022/07/04 01:43:47;;;;;;;3.42;1.95;;;;;;;20.80;nan;96375.28;4997420;28;20210;-72
2022/07/04 01:46:13;;;;;;;4.25;1.70;;;;;;;20.60;nan;96374.84;4998835;28;20210;-72
2022/07/04 01:48:40;;;;;;;3.30;2.00;;;;;;;20.83;nan;96360.38;4995473;28;20226;-72
2022/07/04 01:51:06;;;;;;;5.32;1.95;;;;;;;20.76;nan;96368.78;4998032;28;20207;-72
2022/07/04 01:53:36;;;;;;;2.20;1.88;;;;;;;20.74;nan;96371.72;4997790;28;20217;-72
2022/07/04 01:56:05;;;;;;;3.10;2.03;;;;;;;20.63;nan;96382.41;4998598;28;20199;-72
2022/07/04 01:58:31;;;;;;;3.20;1.95;;;;;;;20.61;nan;96381.81;4997986;28;20237;-72
2022/07/04 02:03:42;;;;;;;2.70;2.28;;;;;;;20.35;nan;96382.31;4996528;28;20221;-72
2022/07/04 02:06:09;;;;;;;3.28;2.10;;;;;;;20.59;nan;96384.72;4998306;28;20214;-72
2022/07/04 02:11:17;;;;;;;5.57;2.10;;;;;;;20.65;nan;96388.34;4996395;28;20568;-72
2022/07/04 02:13:43;;;;;;;3.17;2.10;;;;;;;20.55;nan;96388.13;4996416;28;20213;-72
2022/07/04 02:16:09;;;;;;;8.07;2.30;;;;;;;20.66;nan;96392.63;4997933;28;20234;-72
2022/07/04 02:18:36;;;;;;;5.93;2.33;;;;;;;20.51;nan;96387.78;4997827;28;20572;-72
2022/07/04 02:21:03;;;;;;;3.17;2.20;;;;;;;20.73;nan;96394.19;4998402;28;20213;-72
2022/07/04 02:23:30;;;;;;;6.10;2.40;;;;;;;20.65;nan;96396.38;4996745;28;20265;-72
2022/07/04 02:25:57;;;;;;;3.17;2.17;;;;;;;20.55;nan;96383.56;4997846;28;20194;-72
2022/07/04 02:28:25;;;;;;;3.95;2.60;;;;;;;20.89;nan;96391.59;4998228;28;20214;-72
2022/07/04 02:30:51;;;;;;;3.10;2.40;;;;;;;20.64;nan;96402.78;4997644;28;20589;-72
2022/07/04 02:33:18;;;;;;;3.63;2.83;;;;;;;20.78;nan;96407.69;4997054;28;20198;-72
2022/07/04 02:35:44;;;;;;;3.47;2.08;;;;;;;20.70;nan;96401.88;4997626;28;20671;-72
2022/07/04 02:38:11;;;;;;;3.47;2.33;;;;;;;20.87;nan;96409.78;4997472;28;20222;-72
2022/07/04 02:40:37;;;;;;;4.97;2.53;;;;;;;20.94;nan;96405.09;4997002;28;20604;-72
2022/07/04 02:43:04;;;;;;;4.40;2.55;;;;;;;20.91;nan;96404.75;4997373;28;20209;-72
2022/07/04 02:45:32;;;;;;;2.83;2.22;;;;;;;21.05;nan;96384.66;4996921;28;20234;-72
2022/07/04 02:47:58;;;;;;;4.95;2.65;;;;;;;20.87;nan;96388.34;4994012;28;20198;-72
2022/07/04 02:50:25;;;;;;;5.35;2.50;;;;;;;20.80;nan;96391.38;4997018;28;20671;-72
2022/07/04 02:52:51;;;;;;;3.25;2.58;;;;;;;20.81;nan;96403.72;4996729;28;20202;-72
2022/07/04 02:55:18;;;;;;;4.05;2.90;;;;;;;20.85;nan;96414.53;4992862;28;20203;-72
2022/07/04 02:57:44;;;;;;;5.60;2.70;;;;;;;20.65;nan;96425.84;4997942;28;20226;-72
2022/07/04 03:00:12;;;;;;;7.60;2.88;;;;;;;20.87;nan;96415.13;4996828;28;20238;-72
2022/07/04 03:02:40;;;;;;;6.65;2.80;;;;;;;20.93;nan;96422.22;4996156;28;20206;-72
2022/07/04 03:05:08;;;;;;;7.10;2.78;;;;;;;20.87;nan;96431.22;4996935;28;20697;-72
2022/07/04 03:07:34;;;;;;;4.32;2.63;;;;;;;20.72;nan;96445.28;4997757;28;20579;-72
2022/07/04 03:10:00;;;;;;;3.95;3.00;;;;;;;20.61;nan;96470.19;4997013;28;20226;-72
2022/07/04 03:12:27;;;;;;;4.35;2.60;;;;;;;20.39;nan;96490.56;4995876;28;20213;-71
2022/07/04 03:14:54;;;;;;;6.15;2.75;;;;;;;20.36;nan;96483.00;4997383;28;20218;-71
2022/07/04 03:17:20;;;;;;;4.90;2.55;;;;;;;20.73;nan;96481.75;4996819;28;20725;-72
2022/07/04 03:19:48;;;;;;;6.25;2.70;;;;;;;20.94;nan;96485.47;4996159;28;20226;-72
2022/07/04 03:22:14;;;;;;;4.32;2.85;;;;;;;20.82;nan;96499.13;4996808;28;20198;-72
2022/07/04 03:24:41;;;;;;;10.15;3.70;;;;;;;20.64;nan;96496.53;4995965;28;20221;-72
2022/07/04 03:27:07;;;;;;;7.68;3.03;;;;;;;20.81;nan;96481.41;4996624;28;20202;-72
2022/07/04 03:29:34;;;;;;;5.88;2.85;;;;;;;20.87;nan;96470.56;4996689;28;20222;-72
2022/07/04 03:32:00;;;;;;;5.68;2.45;;;;;;;20.80;nan;96444.94;4996808;28;20209;-72
2022/07/04 03:34:27;;;;;;;5.20;2.75;;;;;;;20.72;nan;96437.25;4995690;28;20207;-72
2022/07/04 03:36:55;;;;;;;7.10;3.00;;;;;;;20.77;nan;96416.75;4997100;28;20874;-72
2022/07/04 03:39:21;;;;;;;5.45;3.47;;;;;;;20.81;nan;96412.56;4996982;28;20241;-73
2022/07/04 03:41:48;;;;;;;7.43;2.80;;;;;;;20.83;nan;96401.63;4996579;28;20213;-72
2022/07/04 03:44:14;;;;;;;4.13;2.63;;;;;;;20.83;nan;96409.66;4996329;28;20678;-72
2022/07/04 03:46:41;;;;;;;6.00;2.50;;;;;;;20.86;nan;96423.38;4996679;28;20693;-73
2022/07/04 03:49:07;;;;;;;6.55;2.53;;;;;;;20.49;nan;96438.09;4993649;28;20561;-72
2022/07/04 03:51:34;;;;;;;4.53;2.85;;;;;;;20.40;nan;96449.34;4996405;28;20733;-73
2022/07/04 03:54:02;;;;;;;6.57;2.53;;;;;;;20.23;nan;96449.22;5000085;28;20265;-72
2022/07/04 03:56:30;;;;;;;5.07;2.47;;;;;;;19.97;nan;96448.84;4999919;28;20202;-72
2022/07/04 03:58:56;;;;;;;5.78;2.92;;;;;;;20.23;nan;96453.78;5000567;28;20340;-72
2022/07/04 04:01:23;;;;;;;5.75;3.17;;;;;;;20.26;nan;96464.00;5000265;28;20222;-73
2022/07/04 04:06:33;;;;;;;7.07;2.90;;;;;;;20.27;nan;96476.34;5000260;28;20217;-73
2022/07/04 04:09:00;;;;;;;6.65;3.53;;;;;;;20.27;nan;96489.72;5000616;28;20215;-73
2022/07/04 04:11:28;;;;;;;6.28;2.75;;;;;;;20.41;nan;96496.50;5000247;28;20211;-73
2022/07/04 04:13:54;;;;;;;4.78;2.50;;;;;;;20.40;nan;96492.19;4999603;28;20202;-73
2022/07/04 04:16:21;;;;;;;8.45;2.38;;;;;;;20.46;nan;96488.59;5000749;28;20205;-73
2022/07/04 04:18:47;;;;;;;7.60;2.85;;;;;;;20.41;nan;96504.53;4999974;28;20230;-73
2022/07/04 04:21:14;;;;;;;5.20;3.03;;;;;;;20.45;nan;96501.16;5000058;28;20198;-73
2022/07/04 04:23:40;;;;;;;7.32;3.13;;;;;;;20.46;nan;96504.66;4998857;28;20207;-73
2022/07/04 04:26:06;;;;;;;3.28;2.70;;;;;;;20.55;nan;96508.63;5000780;28;20210;-73
2022/07/04 04:28:34;;;;;;;5.93;3.03;;;;;;;20.62;nan;96498.59;4999129;28;20233;-73
2022/07/04 04:31:01;;;;;;;4.57;2.78;;;;;;;20.58;nan;96500.13;5000228;28;20202;-73
2022/07/04 04:33:28;;;;;;;11.02;3.33;;;;;;;20.69;nan;96512.72;4998621;28;20297;-73
2022/07/04 04:35:54;;;;;;;7.07;3.05;;;;;;;20.76;nan;96516.09;4999478;28;20212;-73
2022/07/04 04:38:20;;;;;;;8.25;3.05;;;;;;;20.67;nan;96517.47;4999260;28;20226;-73
2022/07/04 04:40:47;;;;;;;7.65;3.17;;;;;;;20.66;nan;96518.50;4999972;28;20586;-73
2022/07/04 04:43:13;;;;;;;4.75;3.15;;;;;;;20.65;nan;96522.25;4998559;28;20202;-73
2022/07/04 04:45:41;;;;;;;6.65;3.33;;;;;;;20.81;nan;96524.25;4999634;28;20202;-72
2022/07/04 04:48:08;;;;;;;9.15;3.10;;;;;;;20.64;nan;96532.13;4996478;28;20199;-72
2022/07/04 04:50:34;;;;;;;6.00;2.83;;;;;;;20.74;nan;96527.06;4999708;28;20207;-72
2022/07/04 04:53:01;;;;;;;6.72;2.78;;;;;;;20.88;nan;96539.19;4998570;28;20229;-72
2022/07/04 04:55:28;;;;;;;7.47;2.63;;;;;;;20.88;nan;96533.81;4999773;28;20206;-71
2022/07/04 04:57:54;;;;;;;7.28;2.95;;;;;;;20.87;nan;96543.72;4999339;28;21029;-72
2022/07/04 05:00:20;;;;;;;6.78;3.33;;;;;;;20.91;nan;96547.56;4999518;28;20241;-72
2022/07/04 05:02:48;;;;;;;4.28;2.80;;;;;;;20.91;nan;96560.97;4997908;28;20686;-72
2022/07/04 05:05:15;;;;;;;9.65;2.90;;;;;;;20.81;nan;96564.44;4998877;28;20209;-71
2022/07/04 05:07:41;;;;;;;5.90;2.88;;;;;;;21.05;nan;96553.50;4999531;28;20209;-72
2022/07/04 05:10:09;;;;;;;5.97;3.13;;;;;;;21.03;nan;96552.94;4998799;28;20229;-72
2022/07/04 05:12:36;;;;;;;5.45;2.80;;;;;;;20.98;nan;96555.50;4998271;28;20658;-71
2022/07/04 05:15:03;;;;;;;4.53;3.10;;;;;;;20.92;nan;96567.13;4999003;28;20203;-72
2022/07/04 05:17:29;;;;;;;6.82;3.13;;;;;;;21.06;nan;96563.97;4998715;28;20209;-71
2022/07/04 05:19:57;;;;;;;4.82;3.20;;;;;;;21.23;nan;96559.56;4999003;28;20770;-71
2022/07/04 05:22:23;;;;;;;7.45;3.03;;;;;;;21.08;nan;96567.25;4998829;28;20214;-72
2022/07/04 05:24:50;;;;;;;4.70;2.97;;;;;;;21.00;nan;96572.13;4998503;28;20206;-71
2022/07/04 05:27:16;;;;;;;8.35;3.53;;;;;;;20.81;nan;96580.53;4999337;28;20203;-71
2022/07/04 05:29:43;;;;;;;4.50;3.10;;;;;;;20.52;nan;96571.50;4998013;28;20230;-72
2022/07/04 05:32:09;;;;;;;7.43;2.88;;;;;;;21.06;nan;96576.56;4999309;28;20203;-72
2022/07/04 05:34:36;;;;;;;5.60;2.70;;;;;;;21.00;nan;96574.81;4997443;28;20202;-72
2022/07/04 05:37:04;;;;;;;5.15;3.03;;;;;;;21.11;nan;96580.16;4999234;28;20210;-72
2022/07/04 05:39:31;;;;;;;9.50;3.53;;;;;;;21.10;nan;96575.84;4998389;28;20230;-71
2022/07/04 05:41:57;;;;;;;8.60;3.10;;;;;;;21.22;nan;96573.16;4998663;28;20573;-72
2022/07/04 05:44:24;;;;;;;6.55;3.10;;;;;;;21.25;nan;96578.88;4997863;28;21243;-71
2022/07/04 05:46:50;;;;;;;4.63;2.90;;;;;;;20.82;nan;96582.97;4998137;28;20199;-72
2022/07/04 05:49:17;;;;;;;6.20;3.38;;;;;;;21.00;nan;96591.72;4995252;28;20608;-72
2022/07/04 05:51:43;;;;;;;4.85;2.72;;;;;;;20.83;nan;96591.84;4998470;28;21270;-72
2022/07/04 05:54:11;;;;;;;6.40;3.00;;;;;;;20.85;nan;96595.91;4997640;28;20870;-71
2022/07/04 05:56:39;;;;;;;4.55;3.00;;;;;;;20.79;nan;96596.03;4998564;28;20206;-71
2022/07/04 05:59:06;;;;;;;4.95;3.20;;;;;;;20.83;nan;96594.50;4994073;28;20838;-72
2022/07/04 06:01:32;;;;;;;6.63;3.40;;;;;;;20.75;nan;96592.97;4998303;28;20210;-72
2022/07/04 06:03:59;;;;;;;4.88;2.70;;;;;;;20.95;nan;96588.94;4997915;28;20206;-72
2022/07/04 06:06:25;;;;;;;4.30;3.03;;;;;;;20.88;nan;96596.25;4998217;28;20198;-72
2022/07/04 06:08:52;;;;;;;5.22;3.30;;;;;;;21.01;nan;96600.56;4998583;28;21006;-72
2022/07/04 06:11:19;;;;;;;5.65;3.30;;;;;;;21.01;nan;96600.56;4998326;28;20206;-71
2022/07/04 06:13:46;;;;;;;5.18;3.03;;;;;;;21.11;nan;96593.56;4997343;28;20210;-72
2022/07/04 06:16:12;;;;;;;7.30;3.28;;;;;;;20.89;nan;96597.06;4997816;28;21105;-72
2022/07/04 06:18:39;;;;;;;4.50;3.08;;;;;;;20.96;nan;96595.91;4997575;28;20714;-71
2022/07/04 06:21:05;;;;;;;4.18;2.92;;;;;;;21.02;nan;96586.94;4996785;28;20674;-72
2022/07/04 06:23:32;;;;;;;5.82;3.00;;;;;;;20.99;nan;96590.09;4997444;28;20203;-71
2022/07/04 06:25:58;;;;;;;6.18;3.08;;;;;;;21.07;nan;96586.25;4997520;28;20651;-71
2022/07/04 06:28:26;;;;;;;4.63;2.97;;;;;;;21.27;nan;96597.41;4996970;28;20828;-72
2022/07/04 06:30:53;;;;;;;4.22;3.30;;;;;;;21.22;nan;96599.97;4997558;28;20209;-71
2022/07/04 06:33:19;;;;;;;8.18;2.78;;;;;;;21.17;nan;96606.06;4997447;28;20202;-71
2022/07/04 06:35:45;;;;;;;8.27;3.10;;;;;;;21.13;nan;96596.84;4997036;28;20207;-72
2022/07/04 06:38:13;;;;;;;4.18;3.13;;;;;;;21.45;nan;96598.13;4997849;28;20202;-71
2022/07/04 06:40:40;;;;;;;6.03;2.60;;;;;;;21.28;nan;96605.22;4997074;28;20214;-71
2022/07/04 06:43:07;;;;;;;5.80;2.97;;;;;;;21.14;nan;96609.22;4997107;28;20202;-71
2022/07/04 06:45:35;;;;;;;3.53;2.75;;;;;;;21.39;nan;96604.41;4997256;28;20203;-71
2022/07/04 06:48:02;;;;;;;4.68;3.00;;;;;;;21.59;nan;96603.00;4995014;28;20802;-72
2022/07/04 06:50:32;;;;;;;5.90;2.33;;;;;;;21.74;nan;96599.81;4997346;28;20202;-72
2022/07/04 06:52:59;;;;;;;5.93;2.58;;;;;;;21.64;nan;96592.38;4996417;28;20198;-72
2022/07/04 06:55:25;;;;;;;4.03;2.63;;;;;;;21.69;nan;96591.66;4998037;28;20198;-72
2022/07/04 06:57:51;;;;;;;5.35;2.30;;;;;;;21.69;nan;96584.44;4996579;28;20734;-72
2022/07/04 07:00:18;;;;;;;4.30;2.70;;;;;;;21.90;nan;96583.00;4997151;28;20397;-72
2022/07/04 07:02:46;;;;;;;4.57;2.67;;;;;;;21.82;nan;96581.50;4996693;28;20207;-71
2022/07/04 07:05:12;;;;;;;7.05;2.55;;;;;;;21.63;nan;96593.44;4996230;28;20213;-71
2022/07/04 07:07:39;;;;;;;6.00;2.60;;;;;;;21.65;nan;96591.34;4996020;28;20214;-72
2022/07/04 07:10:07;;;;;;;5.28;2.75;;;;;;;21.63;nan;96593.44;4997111;28;20219;-71
2022/07/04 07:12:34;;;;;;;5.28;2.83;;;;;;;21.70;nan;96599.50;4995901;28;20730;-71
2022/07/04 07:15:01;;;;;;;5.22;2.50;;;;;;;21.92;nan;96583.53;4996623;28;20898;-72
2022/07/04 07:17:27;;;;;;;4.50;2.65;;;;;;;22.08;nan;96576.38;4995722;28;20603;-72
2022/07/04 07:19:55;;;;;;;3.42;2.50;;;;;;;21.96;nan;96584.69;4996280;28;20241;-71
2022/07/04 07:22:22;;;;;;;4.03;2.53;;;;;;;21.89;nan;96594.78;4995514;28;20195;-71
2022/07/04 07:24:48;;;;;;;6.03;2.47;;;;;;;21.94;nan;96594.88;4996145;28;20589;-71
2022/07/04 07:27:15;;;;;;;2.40;2.20;;;;;;;22.12;nan;96588.28;4995797;28;20203;-71
2022/07/04 07:29:41;;;;;;;3.38;2.35;;;;;;;22.10;nan;96590.38;4995400;28;20394;-71
2022/07/04 07:32:08;;;;;;;4.18;2.30;;;;;;;22.28;nan;96587.50;4995440;28;20207;-72
2022/07/04 07:34:35;;;;;;;4.13;2.58;;;;;;;22.02;nan;96599.84;4994494;28;20210;-72
2022/07/04 07:37:03;;;;;;;3.47;2.13;;;;;;;22.33;nan;96587.63;4995074;28;20496;-71
2022/07/04 07:39:30;;;;;;;3.88;2.00;;;;;;;22.56;nan;96584.81;4995387;28;20230;-71
2022/07/04 07:41:56;;;;;;;3.15;2.25;;;;;;;22.56;nan;96587.50;4996070;28;20217;-71
2022/07/04 07:44:23;;;;;;;2.65;2.17;;;;;;;22.37;nan;96578.00;4994775;28;20206;-71
2022/07/04 07:46:50;;;;;;;6.70;2.75;;;;;;;22.51;nan;96570.47;4996190;28;20198;-71
2022/07/04 07:49:16;;;;;;;5.70;2.65;;;;;;;22.67;nan;96570.50;4993953;28;20215;-72
2022/07/04 07:51:43;;;;;;;3.53;2.20;;;;;;;22.70;nan;96570.00;4996169;28;20217;-72
2022/07/04 07:54:11;;;;;;;4.07;2.92;;;;;;;23.03;nan;96575.41;4995261;28;20203;-71
2022/07/04 07:56:37;;;;;;;2.47;1.88;;;;;;;23.04;nan;96566.25;4996575;28;20217;-71
2022/07/04 07:59:04;;;;;;;4.68;2.20;;;;;;;22.95;nan;96556.94;4995454;28;20649;-72
2022/07/04 08:01:30;;;;;;;5.22;2.20;;;;;;;23.40;nan;96548.50;4995098;28;20214;-71
2022/07/04 08:06:41;;;;;;;4.13;2.30;;;;;;;23.24;nan;96540.47;4995955;28;20447;-72
2022/07/04 08:09:08;;;;;;;3.42;2.00;;;;;;;23.20;nan;96538.53;4995740;28;20222;-71
2022/07/04 08:11:36;;;;;;;6.07;2.42;;;;;;;23.17;nan;96529.09;4995488;28;20765;-71
2022/07/04 08:14:03;;;;;;;2.97;2.00;;;;;;;23.48;nan;96526.53;4995547;28;20207;-71
2022/07/04 08:16:29;;;;;;;4.13;2.20;;;;;;;23.30;nan;96527.94;4996609;28;20209;-72
2022/07/04 08:18:56;;;;;;;4.45;2.50;;;;;;;23.28;nan;96522.81;4995787;28;20230;-72
2022/07/04 08:21:22;;;;;;;4.90;2.50;;;;;;;23.44;nan;96513.84;4996549;28;20203;-72
2022/07/04 08:23:49;;;;;;;4.70;2.50;;;;;;;23.57;nan;96503.53;4995427;28;20207;-71
2022/07/04 08:26:15;;;;;;;7.45;2.67;;;;;;;23.60;nan;96499.50;4995947;28;20210;-72
2022/07/04 08:28:43;;;;;;;3.42;2.17;;;;;;;23.77;nan;96495.72;4996145;28;20231;-72
2022/07/04 08:31:10;;;;;;;3.17;2.10;;;;;;;24.13;nan;96506.63;4996797;28;20210;-71
2022/07/04 08:33:36;;;;;;;4.55;2.15;;;;;;;24.08;nan;96516.50;4995430;28;20206;-72
2022/07/04 08:36:03;;;;;;;4.55;2.53;;;;;;;24.61;nan;96512.75;4996195;28;20203;-72
2022/07/04 08:38:30;;;;;;;4.18;2.47;;;;;;;24.40;nan;96520.94;4997697;28;20305;-72
2022/07/04 08:40:58;;;;;;;3.28;2.03;;;;;;;24.10;nan;96520.59;4999613;28;20210;-71
2022/07/04 08:43:26;;;;;;;4.43;2.20;;;;;;;24.13;nan;96514.72;4999129;28;20838;-71
2022/07/04 08:45:55;;;;;;;3.13;2.38;;;;;;;24.22;nan;96517.75;4999166;28;20202;-71
2022/07/04 08:48:26;;;;;;;3.50;2.25;;;;;;;24.57;nan;96519.72;4997266;28;20273;-72
2022/07/04 08:50:58;;;;;;;3.20;2.40;;;;;;;24.85;nan;96522.09;4998814;28;20284;-71
2022/07/04 08:53:29;;;;;;;2.67;1.98;;;;;;;25.13;nan;96529.88;4999248;28;20207;-72
2022/07/04 08:58:42;;;;;;;5.28;2.17;;;;;;;24.73;nan;96532.25;4999219;28;20360;-72
2022/07/04 09:01:14;;;;;;;5.53;2.65;;;;;;;24.90;nan;96522.13;4999513;28;20217;-72
2022/07/04 09:03:42;;;;;;;5.63;2.30;;;;;;;24.68;nan;96523.31;4998635;28;20209;-72
2022/07/04 09:06:08;;;;;;;3.78;2.47;;;;;;;24.27;nan;96525.88;4999048;28;20253;-72
2022/07/04 09:08:35;;;;;;;4.85;2.45;;;;;;;24.47;nan;96536.88;4998689;28;20230;-72
2022/07/04 09:11:03;;;;;;;4.93;2.50;;;;;;;24.67;nan;96535.19;4998704;28;20214;-71
2022/07/04 09:13:30;;;;;;;6.00;2.78;;;;;;;24.77;nan;96536.06;4998293;28;20561;-72
2022/07/04 09:15:57;;;;;;;3.72;2.10;;;;;;;24.60;nan;96537.25;4998568;28;20199;-71
2022/07/04 09:18:26;;;;;;;3.22;2.22;;;;;;;24.87;nan;96538.84;4998229;28;20734;-72
2022/07/04 09:20:53;;;;;;;4.38;2.40;;;;;;;24.90;nan;96543.72;4997458;28;20680;-72
2022/07/04 09:23:22;;;;;;;5.75;2.25;;;;;;;24.82;nan;96546.06;4997746;28;20198;-71
2022/07/04 09:25:49;;;;;;;4.50;2.50;;;;;;;24.59;nan;96551.78;4999238;28;20206;-71
2022/07/04 09:28:28;;;;;;;2.80;2.20;;;;;;;25.45;nan;96558.41;4999187;28;20203;-71
2022/07/04 09:30:54;;;;;;;3.05;2.08;;;;;;;25.79;nan;96565.09;4997784;28;20712;-71
2022/07/04 09:33:21;;;;;;;2.40;2.05;;;;;;;25.65;nan;96566.63;4998523;28;20411;-72
2022/07/04 09:35:49;;;;;;;3.20;1.80;;;;;;;25.74;nan;96572.34;4998959;28;20218;-72
2022/07/04 09:38:23;;;;;;;2.28;1.95;;;;;;;26.16;nan;96571.97;4997831;28;20207;-72
2022/07/04 09:43:37;;;;;;;4.35;2.00;;;;;;;25.72;nan;96564.50;4997992;28;20217;-71
2022/07/04 09:46:05;;;;;;;2.55;1.80;;;;;;;25.61;nan;96564.69;4996124;28;20198;-72
2022/07/04 09:48:49;;;;;;;2.45;1.80;;;;;;;25.62;nan;96558.22;4997098;28;20232;-71
2022/07/04 09:51:36;;;;;;;1.73;1.60;;;;;;;25.65;nan;96553.13;4997522;28;20217;-72
2022/07/04 09:54:13;;;;;;;2.35;1.75;;;;;;;25.57;nan;96547.41;4996097;28;20671;-71
2022/07/04 09:56:40;;;;;;;3.88;1.80;;;;;;;25.59;nan;96524.47;4997487;28;20211;-71
2022/07/04 09:59:07;;;;;;;2.60;2.00;;;;;;;25.67;nan;96517.75;4997373;28;20234;-72
2022/07/04 10:01:33;;;;;;;4.05;1.90;;;;;;;25.55;nan;96511.78;4996973;28;20264;-71
2022/07/04 10:04:01;;;;;;;2.72;1.80;;;;;;;25.75;nan;96515.41;4992826;28;21027;-71
2022/07/04 10:06:32;;;;;;;2.50;1.67;;;;;;;26.31;nan;96531.50;4997281;28;20198;-72
2022/07/04 10:09:07;;;;;;;3.63;1.77;;;;;;;26.24;nan;96533.63;4997962;28;20222;-71
2022/07/04 10:11:34;;;;;;;4.40;1.95;;;;;;;26.31;nan;96538.78;4996649;28;20206;-72
2022/07/04 10:14:01;;;;;;;5.18;1.85;;;;;;;26.51;nan;96535.06;4994242;28;20617;-72
2022/07/04 10:16:28;;;;;;;4.20;1.92;;;;;;;26.71;nan;96531.56;4998277;28;20214;-72
2022/07/04 10:18:55;;;;;;;2.95;1.63;;;;;;;26.59;nan;96529.13;4997668;28;20237;-71
2022/07/04 10:21:22;;;;;;;2.40;1.60;;;;;;;26.57;nan;96525.06;4997723;28;20218;-71
2022/07/04 10:23:51;;;;;;;3.33;1.77;;;;;;;26.30;nan;96532.56;4996690;28;20969;-71
2022/07/04 10:26:19;;;;;;;5.63;1.88;;;;;;;26.31;nan;96536.06;4997856;28;20234;-71
2022/07/04 10:28:47;;;;;;;5.13;1.70;;;;;;;26.31;nan;96534.19;4997216;28;20229;-71
2022/07/04 10:31:14;;;;;;;3.92;1.70;;;;;;;26.12;nan;96533.06;4997787;28;20230;-71
2022/07/04 10:33:43;;;;;;;4.18;1.65;;;;;;;26.27;nan;96534.97;4996222;28;20206;-71
2022/07/04 10:36:15;;;;;;;3.95;1.63;;;;;;;26.91;nan;96543.19;4997264;28;20234;-71
2022/07/04 10:38:49;;;;;;;3.22;1.70;;;;;;;27.11;nan;96540.47;4997819;28;20304;-71
2022/07/04 10:41:20;;;;;;;3.35;1.77;;;;;;;27.27;nan;96542.91;4997864;28;20601;-71
2022/07/04 10:44:03;;;;;;;3.00;1.60;;;;;;;27.06;nan;96547.81;4996371;28;20297;-72
2022/07/04 10:46:34;;;;;;;3.72;1.75;;;;;;;26.86;nan;96547.78;4997071;28;20203;-72
2022/07/04 10:49:03;;;;;;;3.72;1.50;;;;;;;26.62;nan;96538.59;4994484;28;20218;-72
2022/07/04 10:51:35;;;;;;;2.47;1.85;;;;;;;27.08;nan;96544.53;4995782;28;20222;-72
2022/07/04 10:54:04;;;;;;;2.75;1.75;;;;;;;27.08;nan;96542.94;4996103;28;20207;-71
2022/07/04 10:56:44;;;;;;;3.60;1.65;;;;;;;27.04;nan;96539.97;4996532;28;20202;-72
2022/07/04 10:59:22;;;;;;;5.05;1.88;;;;;;;27.23;nan;96536.41;4996326;28;20591;-72
2022/07/04 11:01:51;;;;;;;2.70;1.80;;;;;;;26.82;nan;96541.28;4995264;28;20218;-72
2022/07/04 11:04:51;;;;;;;2.35;1.90;;;;;;;26.67;nan;96535.91;4995794;28;20206;-72
2022/07/04 11:07:18;;;;;;;5.05;1.73;;;;;;;26.22;nan;96533.09;4995393;28;20217;-72
2022/07/04 11:09:47;;;;;;;1.98;1.55;;;;;;;26.91;nan;96535.06;4996016;28;20250;-72
2022/07/04 11:12:15;;;;;;;2.35;1.92;;;;;;;26.64;nan;96536.41;4996202;28;20206;-71
2022/07/04 11:14:43;;;;;;;2.70;1.77;;;;;;;26.55;nan;96538.03;4991647;28;20238;-72
2022/07/04 11:17:11;;;;;;;3.38;1.73;;;;;;;26.69;nan;96533.72;4996599;28;20289;-72
2022/07/04 11:19:38;;;;;;;5.45;2.17;;;;;;;27.11;nan;96537.78;4995590;28;20828;-72
2022/07/04 11:22:06;;;;;;;1.83;1.48;;;;;;;27.31;nan;96537.75;4996096;28;20202;-72
2022/07/04 11:24:33;;;;;;;2.10;1.75;;;;;;;27.04;nan;96522.91;4995737;28;20206;-72
2022/07/04 11:27:01;;;;;;;4.55;1.92;;;;;;;26.35;nan;96524.50;4997024;28;20842;-71
2022/07/04 11:29:29;;;;;;;2.95;1.90;;;;;;;26.66;nan;96516.13;4995665;28;20273;-72
2022/07/04 11:31:57;;;;;;;3.05;1.95;;;;;;;26.98;nan;96513.19;4996840;28;20202;-72
2022/07/04 11:34:24;;;;;;;3.35;1.88;;;;;;;27.39;nan;96502.00;4995896;28;20205;-72
2022/07/04 11:36:53;;;;;;;4.28;2.08;;;;;;;27.94;nan;96499.91;4996084;28;20234;-72
2022/07/04 11:39:21;;;;;;;5.75;1.73;;;;;;;27.69;nan;96498.13;4996552;28;20222;-72
2022/07/04 11:47:23;;;;;;;3.88;1.85;;;;;;;28.01;nan;96478.75;4995218;28;20681;-72
2022/07/04 11:49:51;;;;;;;4.90;2.00;;;;;;;28.55;nan;96486.53;4996133;28;20219;-72
2022/07/04 11:52:20;;;;;;;2.95;2.00;;;;;;;28.66;nan;96477.22;4995216;28;20220;-72
2022/07/04 11:54:48;;;;;;;2.85;1.40;;;;;;;28.43;nan;96475.22;4995134;28;21393;-72
2022/07/04 11:57:18;;;;;;;1.95;1.85;;;;;;;28.17;nan;96478.41;4992965;28;20659;-72
2022/07/04 11:59:54;;;;;;;4.80;1.85;;;;;;;28.18;nan;96480.00;4995761;28;20230;-72
2022/07/04 12:02:21;;;;;;;3.15;1.75;;;;;;;27.56;nan;96470.84;4995177;28;20198;-72
2022/07/04 12:04:48;;;;;;;3.65;1.88;;;;;;;27.69;nan;96466.75;4995216;28;20210;-72
2022/07/04 12:07:16;;;;;;;2.63;1.92;;;;;;;27.62;nan;96469.72;4996330;28;20563;-72
2022/07/04 12:09:44;;;;;;;5.07;1.73;;;;;;;28.29;nan;96464.50;4995362;28;20726;-72
2022/07/04 12:12:11;;;;;;;2.85;1.85;;;;;;;28.46;nan;96454.88;4995366;28;20227;-72
2022/07/04 12:14:39;;;;;;;2.50;2.00;;;;;;;28.88;nan;96465.94;4999236;28;20205;-72